createdAt,value
2023-03-26T00:01:24.381Z,2.33
2023-03-26T00:03:52.739Z,3.53
2023-03-26T00:06:22.091Z,4.13
2023-03-26T00:08:50.048Z,4.57
2023-03-26T00:11:18.988Z,2.47
2023-03-26T00:13:46.200Z,2.90
2023-03-26T00:16:14.884Z,2.43
2023-03-26T00:18:44.750Z,3.07
2023-03-26T00:21:14.440Z,3.00
2023-03-26T00:23:42.112Z,3.47
2023-03-26T00:26:09.637Z,3.60
2023-03-26T00:28:36.993Z,1.90
2023-03-26T00:31:06.041Z,2.93
2023-03-26T00:33:33.311Z,3.90
2023-03-26T00:36:04.433Z,3.53
2023-03-26T00:38:32.011Z,4.27
2023-03-26T00:41:00.814Z,3.33
2023-03-26T00:43:27.687Z,2.80
2023-03-26T00:45:55.629Z,2.47
2023-03-26T00:48:34.218Z,2.10
2023-03-26T00:51:12.645Z,2.47
2023-03-26T00:53:39.505Z,3.53
2023-03-26T00:56:08.228Z,3.07
2023-03-26T00:58:35.561Z,3.53
2023-03-26T01:01:05.113Z,3.20
2023-03-26T01:03:33.470Z,2.13
2023-03-26T01:06:01.393Z,4.17
2023-03-26T01:08:35.529Z,3.10
2023-03-26T01:11:06.177Z,2.73
2023-03-26T01:13:35.889Z,2.30
2023-03-26T01:16:03.768Z,2.43
2023-03-26T01:18:32.693Z,2.37
2023-03-26T01:21:01.466Z,1.93
2023-03-26T01:23:39.532Z,3.80
2023-03-26T01:26:16.468Z,2.20
2023-03-26T01:28:43.525Z,3.30
2023-03-26T01:31:18.807Z,2.17
2023-03-26T01:33:49.262Z,2.23
2023-03-26T01:36:21.186Z,3.27
2023-03-26T01:38:53.364Z,1.87
2023-03-26T01:41:31.035Z,3.90
2023-03-26T01:44:03.806Z,2.87
2023-03-26T01:46:32.404Z,2.47
2023-03-26T01:48:59.318Z,2.20
2023-03-26T01:51:28.149Z,1.93
2023-03-26T01:53:56.547Z,4.07
2023-03-26T01:56:31.667Z,4.60
2023-03-26T01:59:16.765Z,3.77
2023-03-26T02:01:49.508Z,3.10
2023-03-26T02:04:24.802Z,5.07
2023-03-26T02:06:59.069Z,2.23
2023-03-26T02:09:29.983Z,2.40
2023-03-26T02:12:01.349Z,2.67
2023-03-26T02:14:30.107Z,2.80
2023-03-26T02:16:57.035Z,1.77
2023-03-26T02:19:24.109Z,2.40
2023-03-26T02:21:50.977Z,2.73
2023-03-26T02:24:18.512Z,3.33
2023-03-26T02:26:45.836Z,3.23
2023-03-26T02:29:16.068Z,3.33
2023-03-26T02:31:42.977Z,3.23
2023-03-26T02:34:09.875Z,3.53
2023-03-26T02:36:36.885Z,4.17
2023-03-26T02:39:04.335Z,3.23
2023-03-26T02:41:31.249Z,4.13
2023-03-26T02:43:58.124Z,2.70
2023-03-26T02:46:27.691Z,3.83
2023-03-26T02:48:54.683Z,4.13
2023-03-26T02:51:21.589Z,4.00
2023-03-26T02:53:48.485Z,5.03
2023-03-26T02:56:15.408Z,3.07
2023-03-26T02:58:42.288Z,3.73
2023-03-26T03:01:09.305Z,2.20
2023-03-26T03:03:38.871Z,3.93
2023-03-26T03:06:06.292Z,5.77
2023-03-26T03:08:33.187Z,3.33
2023-03-26T03:11:02.187Z,3.00
2023-03-26T03:13:29.157Z,4.73
2023-03-26T03:15:56.397Z,2.43
2023-03-26T03:18:23.478Z,5.30
2023-03-26T03:20:53.070Z,3.97
2023-03-26T03:23:19.980Z,3.97
2023-03-26T03:25:47.124Z,4.17
2023-03-26T03:28:13.998Z,2.77
2023-03-26T03:30:40.921Z,4.13
2023-03-26T03:33:07.904Z,3.13
2023-03-26T03:35:34.885Z,2.70
2023-03-26T03:38:04.391Z,5.63
2023-03-26T03:40:32.142Z,3.23
2023-03-26T03:42:59.016Z,3.67
2023-03-26T03:45:25.901Z,1.83
2023-03-26T03:47:52.868Z,4.50
2023-03-26T03:50:20.021Z,2.83
2023-03-26T03:52:46.912Z,4.47
2023-03-26T03:55:16.796Z,2.73
2023-03-26T03:57:43.988Z,3.57
2023-03-26T04:00:12.726Z,5.07
2023-03-26T04:02:39.669Z,3.47
2023-03-26T04:05:07.463Z,4.73
2023-03-26T04:07:34.412Z,5.03
2023-03-26T04:10:01.613Z,2.20
2023-03-26T04:12:31.898Z,3.37
2023-03-26T04:14:59.203Z,4.13
2023-03-26T04:17:26.388Z,3.83
2023-03-26T04:19:53.293Z,3.40
2023-03-26T04:22:20.199Z,5.43
2023-03-26T04:24:47.448Z,5.43
2023-03-26T04:27:16.912Z,3.63
2023-03-26T04:29:49.563Z,4.90
2023-03-26T04:32:23.076Z,4.57
2023-03-26T04:34:50.180Z,2.63
2023-03-26T04:37:22.934Z,4.07
2023-03-26T04:39:49.908Z,3.73
2023-03-26T04:42:16.816Z,4.33
2023-03-26T04:44:46.318Z,4.53
2023-03-26T04:47:13.221Z,3.63
2023-03-26T04:49:40.104Z,4.00
2023-03-26T04:52:07.005Z,4.80
2023-03-26T04:54:33.966Z,3.13
2023-03-26T04:57:04.443Z,2.50
2023-03-26T04:59:33.736Z,2.60
2023-03-26T05:02:04.423Z,3.10
2023-03-26T05:04:31.397Z,3.23
2023-03-26T05:06:58.822Z,4.23
2023-03-26T05:09:25.852Z,2.47
2023-03-26T05:11:52.817Z,2.83
2023-03-26T05:14:20.060Z,2.10
2023-03-26T05:16:48.911Z,2.43
2023-03-26T05:19:18.560Z,4.60
2023-03-26T05:21:45.547Z,3.67
2023-03-26T05:24:12.499Z,2.93
2023-03-26T05:26:39.350Z,4.53
2023-03-26T05:29:06.236Z,3.17
2023-03-26T05:31:33.122Z,1.50
2023-03-26T05:34:00.140Z,2.53
2023-03-26T05:36:29.730Z,2.40
2023-03-26T05:38:56.625Z,3.13
2023-03-26T05:41:23.479Z,3.03
2023-03-26T05:43:50.341Z,4.23
2023-03-26T05:46:17.313Z,5.23
2023-03-26T05:48:44.210Z,3.47
2023-03-26T05:51:11.134Z,3.83
2023-03-26T05:53:40.597Z,7.37
2023-03-26T05:56:08.305Z,3.00
2023-03-26T05:58:36.018Z,2.80
2023-03-26T06:01:04.916Z,3.30
2023-03-26T06:03:32.471Z,3.03
2023-03-26T06:05:59.688Z,2.80
2023-03-26T06:08:26.862Z,1.70
2023-03-26T06:11:02.054Z,2.47
2023-03-26T06:13:29.032Z,3.83
2023-03-26T06:15:56.110Z,3.83
2023-03-26T06:18:23.128Z,3.97
2023-03-26T06:20:50.425Z,3.50
2023-03-26T06:23:17.378Z,3.07
2023-03-26T06:25:44.780Z,3.53
2023-03-26T06:28:14.801Z,2.10
2023-03-26T06:30:42.258Z,3.33
2023-03-26T06:33:09.210Z,4.20
2023-03-26T06:35:36.127Z,4.23
2023-03-26T06:38:03.415Z,5.23
2023-03-26T06:40:30.520Z,4.93
2023-03-26T06:43:09.478Z,4.80
2023-03-26T06:45:40.236Z,3.83
2023-03-26T06:48:07.231Z,3.63
2023-03-26T06:50:34.273Z,3.97
2023-03-26T06:53:01.170Z,2.50
2023-03-26T06:55:28.166Z,2.97
2023-03-26T06:57:55.336Z,3.77
2023-03-26T07:00:22.495Z,7.13
2023-03-26T07:02:52.024Z,3.93
2023-03-26T07:05:18.930Z,2.67
2023-03-26T07:07:46.777Z,2.60
2023-03-26T07:10:14.809Z,2.97
2023-03-26T07:12:41.893Z,5.90
2023-03-26T07:15:09.567Z,2.63
2023-03-26T07:17:36.446Z,3.43
2023-03-26T07:20:07.803Z,3.57
2023-03-26T07:22:35.818Z,4.30
2023-03-26T07:25:03.775Z,3.43
2023-03-26T07:27:43.234Z,4.20
2023-03-26T07:30:14.252Z,4.00
2023-03-26T07:32:49.643Z,5.10
2023-03-26T07:35:23.435Z,3.97
2023-03-26T07:38:07.561Z,4.40
2023-03-26T07:40:52.358Z,4.30
2023-03-26T07:43:30.822Z,3.83
2023-03-26T07:45:58.334Z,4.60
2023-03-26T07:48:29.401Z,4.10
2023-03-26T07:50:59.731Z,3.50
2023-03-26T07:53:27.021Z,4.47
2023-03-26T07:56:02.737Z,3.17
2023-03-26T07:58:59.431Z,3.20
2023-03-26T08:01:40.776Z,3.33
2023-03-26T08:04:32.268Z,2.77
2023-03-26T08:07:08.192Z,5.90
2023-03-26T08:09:40.605Z,2.87
2023-03-26T08:12:17.781Z,3.30
2023-03-26T08:14:53.049Z,2.00
2023-03-26T08:17:29.933Z,4.23
2023-03-26T08:20:10.850Z,4.83
2023-03-26T08:22:42.168Z,3.83
2023-03-26T08:25:23.671Z,3.73
2023-03-26T08:28:03.885Z,2.73
2023-03-26T08:30:31.238Z,3.30
2023-03-26T08:33:00.366Z,5.50
2023-03-26T08:35:28.409Z,6.40
2023-03-26T08:37:57.980Z,4.90
2023-03-26T08:40:47.059Z,5.53
2023-03-26T08:43:39.326Z,4.73
2023-03-26T08:46:50.823Z,3.00
2023-03-26T08:49:49.318Z,4.00
2023-03-26T08:52:48.770Z,4.83
2023-03-26T08:55:37.216Z,3.00
2023-03-26T08:58:37.871Z,3.40
2023-03-26T09:01:33.189Z,2.73
2023-03-26T09:04:27.740Z,5.50
2023-03-26T09:07:15.057Z,4.63
2023-03-26T09:10:07.041Z,8.27
2023-03-26T09:12:58.432Z,7.53
2023-03-26T09:15:55.334Z,39.17
2023-03-26T09:18:49.522Z,27.97
2023-03-26T09:21:47.507Z,17.10
2023-03-26T09:24:44.245Z,10.20
2023-03-26T09:27:32.780Z,9.70
2023-03-26T09:30:38.321Z,8.20
2023-03-26T09:33:53.406Z,7.40
2023-03-26T09:36:25.451Z,8.37
2023-03-26T09:38:58.499Z,4.53
2023-03-26T09:41:36.031Z,8.47
2023-03-26T09:44:31.687Z,6.13
2023-03-26T09:47:24.385Z,10.23
2023-03-26T09:49:59.514Z,11.73
2023-03-26T09:52:49.867Z,19.33
2023-03-26T09:55:33.734Z,9.87
2023-03-26T09:58:14.705Z,12.03
2023-03-26T10:00:47.973Z,34.97
2023-03-26T10:03:28.277Z,16.83
2023-03-26T10:06:10.065Z,10.93
2023-03-26T10:08:56.914Z,10.83
2023-03-26T10:11:31.087Z,5.70
2023-03-26T10:14:07.080Z,6.40
2023-03-26T10:16:45.623Z,6.13
2023-03-26T10:19:29.541Z,5.37
2023-03-26T10:22:05.653Z,4.87
2023-03-26T10:24:48.506Z,5.27
2023-03-26T10:27:25.979Z,4.73
2023-03-26T10:30:18.054Z,4.10
2023-03-26T10:32:56.169Z,2.07
2023-03-26T10:35:35.543Z,2.90
2023-03-26T10:38:18.634Z,4.30
2023-03-26T10:40:55.471Z,3.23
2023-03-26T10:43:43.122Z,3.57
2023-03-26T10:46:44.076Z,2.80
2023-03-26T10:49:33.437Z,2.97
2023-03-26T10:52:03.478Z,3.30
2023-03-26T10:54:41.846Z,2.83
2023-03-26T10:57:20.910Z,2.10
2023-03-26T10:59:47.840Z,1.50
2023-03-26T11:02:29.406Z,2.03
2023-03-26T11:05:18.282Z,1.77
2023-03-26T11:07:52.363Z,2.07
2023-03-26T11:10:27.990Z,1.23
2023-03-26T11:13:02.994Z,1.43
2023-03-26T11:15:35.940Z,1.77
2023-03-26T11:18:12.496Z,1.53
2023-03-26T11:20:45.094Z,3.13
2023-03-26T11:23:33.832Z,1.40
2023-03-26T11:26:14.682Z,1.47
2023-03-26T11:29:32.456Z,1.13
2023-03-26T11:32:03.850Z,1.87
2023-03-26T11:34:34.904Z,1.67
2023-03-26T11:37:04.970Z,1.30
2023-03-26T11:39:41.752Z,1.20
2023-03-26T11:42:14.392Z,1.10
2023-03-26T11:44:46.661Z,1.53
2023-03-26T11:47:18.662Z,1.83
2023-03-26T11:49:49.727Z,1.70
2023-03-26T11:52:16.827Z,1.50
2023-03-26T11:54:43.727Z,1.70
2023-03-26T11:57:17.437Z,2.40
2023-03-26T11:59:57.292Z,2.30
2023-03-26T12:02:27.427Z,2.17
2023-03-26T12:05:10.708Z,2.43
2023-03-26T12:07:45.062Z,1.57
2023-03-26T12:10:30.496Z,1.50
2023-03-26T12:13:02.517Z,1.33
2023-03-26T12:15:30.777Z,2.13
2023-03-26T12:17:59.711Z,1.53
2023-03-26T12:20:36.455Z,1.40
2023-03-26T12:23:05.731Z,1.13
2023-03-26T12:25:35.249Z,2.47
2023-03-26T12:28:15.939Z,2.73
2023-03-26T12:30:52.176Z,1.83
2023-03-26T12:33:23.182Z,2.33
2023-03-26T12:35:50.147Z,0.87
2023-03-26T12:38:23.674Z,2.17
2023-03-26T12:41:06.039Z,2.30
2023-03-26T12:44:56.289Z,2.23
2023-03-26T12:47:56.608Z,3.23
2023-03-26T12:49:16.850Z,2.07
2023-03-26T12:51:49.814Z,1.80
2023-03-26T12:54:39.715Z,1.00
2023-03-26T12:57:20.407Z,1.67
2023-03-26T13:00:09.506Z,1.20
2023-03-26T13:02:54.584Z,1.50
2023-03-26T13:05:33.895Z,1.10
2023-03-26T13:08:16.173Z,1.80
2023-03-26T13:11:00.422Z,1.10
2023-03-26T13:13:58.276Z,1.43
2023-03-26T13:16:36.527Z,2.90
2023-03-26T13:19:08.501Z,0.67
2023-03-26T13:21:47.117Z,0.80
2023-03-26T13:24:26.407Z,1.13
2023-03-26T13:27:05.426Z,0.70
2023-03-26T13:29:41.797Z,0.60
2023-03-26T13:32:20.133Z,0.77
2023-03-26T13:35:04.047Z,0.80
2023-03-26T13:37:38.822Z,0.60
2023-03-26T13:40:18.472Z,1.03
2023-03-26T13:42:56.857Z,0.67
2023-03-26T13:45:34.206Z,1.57
2023-03-26T13:48:05.842Z,1.47
2023-03-26T13:50:36.450Z,2.03
2023-03-26T13:53:09.918Z,0.70
2023-03-26T13:55:41.382Z,1.07
2023-03-26T13:58:14.526Z,1.23
2023-03-26T14:00:50.921Z,1.73
2023-03-26T14:03:28.456Z,2.67
2023-03-26T14:05:59.508Z,2.10
2023-03-26T14:08:32.712Z,7.77
2023-03-26T14:11:06.815Z,3.60
2023-03-26T14:13:38.895Z,1.70
2023-03-26T14:16:12.754Z,1.37
2023-03-26T14:18:48.836Z,1.47
2023-03-26T14:21:48.000Z,2.13
2023-03-26T14:24:39.528Z,1.20
2023-03-26T14:27:24.548Z,2.03
2023-03-26T14:30:13.735Z,1.10
2023-03-26T14:32:52.747Z,1.23
2023-03-26T14:35:31.296Z,1.67
2023-03-26T14:38:22.396Z,2.10
2023-03-26T14:41:06.590Z,3.20
2023-03-26T14:44:05.837Z,1.87
2023-03-26T14:46:45.196Z,1.63
2023-03-26T14:49:42.520Z,2.43
2023-03-26T14:52:18.558Z,3.10
2023-03-26T14:54:49.782Z,2.07
2023-03-26T14:57:39.110Z,3.13
2023-03-26T15:00:47.391Z,3.07
2023-03-26T15:03:44.098Z,2.10
2023-03-26T15:06:55.196Z,2.87
2023-03-26T15:09:52.782Z,2.23
2023-03-26T15:12:37.061Z,2.00
2023-03-26T15:15:30.832Z,1.10
2023-03-26T15:18:18.136Z,2.27
2023-03-26T15:21:14.984Z,2.17
2023-03-26T15:24:06.305Z,1.50
2023-03-26T15:27:11.649Z,1.33
2023-03-26T15:30:12.614Z,1.20
2023-03-26T15:33:17.484Z,2.47
2023-03-26T15:36:12.665Z,0.90
2023-03-26T15:39:28.414Z,3.43
2023-03-26T15:42:04.828Z,2.07
2023-03-26T15:45:04.121Z,4.70
2023-03-26T15:47:54.384Z,2.53
2023-03-26T15:50:37.630Z,2.23
2023-03-26T15:53:15.759Z,1.10
2023-03-26T15:55:52.072Z,1.47
2023-03-26T15:58:25.308Z,2.13
2023-03-26T16:01:07.973Z,1.53
2023-03-26T16:03:45.460Z,2.57
2023-03-26T16:06:29.052Z,5.03
2023-03-26T16:09:07.628Z,2.07
2023-03-26T16:11:54.122Z,1.00
2023-03-26T16:14:23.979Z,2.70
2023-03-26T16:16:59.030Z,2.20
2023-03-26T16:19:48.350Z,2.63
2023-03-26T16:22:34.977Z,2.17
2023-03-26T16:25:27.329Z,2.00
2023-03-26T16:28:21.306Z,1.60
2023-03-26T16:31:36.709Z,3.00
2023-03-26T16:34:26.718Z,1.50
2023-03-26T16:36:54.243Z,0.73
2023-03-26T16:39:37.656Z,1.37
2023-03-26T16:42:24.146Z,1.37
2023-03-26T16:45:00.263Z,0.40
2023-03-26T16:47:36.354Z,0.50
2023-03-26T16:50:16.243Z,0.73
2023-03-26T16:52:48.682Z,0.60
2023-03-26T16:55:25.567Z,0.37
2023-03-26T16:57:55.294Z,1.83
2023-03-26T17:00:57.526Z,1.00
2023-03-26T17:03:38.837Z,0.90
2023-03-26T17:06:27.234Z,3.63
2023-03-26T17:09:04.396Z,6.50
2023-03-26T17:11:42.361Z,5.13
2023-03-26T17:14:22.111Z,3.23
2023-03-26T17:17:03.362Z,4.17
2023-03-26T17:19:35.547Z,2.50
2023-03-26T17:22:11.565Z,2.43
2023-03-26T17:24:45.790Z,3.00
2023-03-26T17:27:24.831Z,1.73
2023-03-26T17:30:01.783Z,1.43
2023-03-26T17:32:52.494Z,2.40
2023-03-26T17:35:36.789Z,5.43
2023-03-26T17:38:30.521Z,12.00
2023-03-26T17:40:58.959Z,3.40
2023-03-26T17:43:38.265Z,3.20
2023-03-26T17:46:17.362Z,3.90
2023-03-26T17:48:46.604Z,3.60
2023-03-26T17:51:30.110Z,2.07
2023-03-26T17:54:00.358Z,1.23
2023-03-26T17:56:31.719Z,2.20
2023-03-26T17:59:11.964Z,0.83
2023-03-26T18:01:42.164Z,2.37
2023-03-26T18:04:16.845Z,2.87
2023-03-26T18:07:03.109Z,2.10
2023-03-26T18:09:46.473Z,1.47
2023-03-26T18:12:38.316Z,0.90
2023-03-26T18:15:24.580Z,0.83
2023-03-26T18:18:02.272Z,2.03
2023-03-26T18:20:29.704Z,6.63
2023-03-26T18:22:56.707Z,7.70
2023-03-26T18:25:29.798Z,2.90
2023-03-26T18:27:57.420Z,2.43
2023-03-26T18:30:24.721Z,5.57
2023-03-26T18:32:53.677Z,3.20
2023-03-26T18:35:22.302Z,2.90
2023-03-26T18:37:51.708Z,4.30
2023-03-26T18:40:21.077Z,5.47
2023-03-26T18:42:53.158Z,4.83
2023-03-26T18:45:28.194Z,2.63
2023-03-26T18:47:57.717Z,7.03
2023-03-26T18:50:28.128Z,9.40
2023-03-26T18:52:58.418Z,4.90
2023-03-26T18:55:28.088Z,4.27
2023-03-26T18:57:57.716Z,2.50
2023-03-26T19:00:26.876Z,1.80
2023-03-26T19:03:02.451Z,2.07
2023-03-26T19:05:30.267Z,1.50
2023-03-26T19:07:58.410Z,1.23
2023-03-26T19:10:25.567Z,2.27
2023-03-26T19:13:00.441Z,0.97
2023-03-26T19:15:30.285Z,0.90
2023-03-26T19:17:59.583Z,1.30
2023-03-26T19:20:29.257Z,1.00
2023-03-26T19:22:57.343Z,1.50
2023-03-26T19:25:27.380Z,0.93
2023-03-26T19:27:54.674Z,1.37
2023-03-26T19:30:29.458Z,1.47
2023-03-26T19:33:13.017Z,1.33
2023-03-26T19:35:42.757Z,0.80
2023-03-26T19:38:25.066Z,0.93
2023-03-26T19:40:54.265Z,1.17
2023-03-26T19:43:21.735Z,0.90
2023-03-26T19:46:05.007Z,1.10
2023-03-26T19:48:45.482Z,1.23
2023-03-26T19:51:20.004Z,0.83
2023-03-26T19:53:50.086Z,0.90
2023-03-26T19:56:17.025Z,0.80
2023-03-26T19:58:43.951Z,1.00
2023-03-26T20:01:16.346Z,0.97
2023-03-26T20:03:46.025Z,0.97
2023-03-26T20:06:14.150Z,1.23
2023-03-26T20:08:41.270Z,1.40
2023-03-26T20:11:14.522Z,1.10
2023-03-26T20:13:41.481Z,0.60
2023-03-26T20:16:18.649Z,0.40
2023-03-26T20:18:45.532Z,1.33
2023-03-26T20:21:13.210Z,0.53
2023-03-26T20:23:40.127Z,1.07
2023-03-26T20:26:11.502Z,1.67
2023-03-26T20:28:47.383Z,0.90
2023-03-26T20:31:19.677Z,1.33
2023-03-26T20:33:46.898Z,2.00
2023-03-26T20:36:14.237Z,1.67
2023-03-26T20:39:01.398Z,0.90
2023-03-26T20:41:28.276Z,1.33
2023-03-26T20:43:55.112Z,1.60
2023-03-26T20:46:31.374Z,0.50
2023-03-26T20:48:58.641Z,1.70
2023-03-26T20:51:25.564Z,0.63
2023-03-26T20:53:52.431Z,1.53
2023-03-26T20:56:20.532Z,0.70
2023-03-26T20:58:50.663Z,0.63
2023-03-26T21:01:24.392Z,0.70
2023-03-26T21:03:51.268Z,0.83
2023-03-26T21:06:18.143Z,1.37
2023-03-26T21:08:45.844Z,1.33
2023-03-26T21:11:27.223Z,0.60
2023-03-26T21:14:00.508Z,1.63
2023-03-26T21:16:30.810Z,1.03
2023-03-26T21:18:58.442Z,0.93
2023-03-26T21:21:46.302Z,0.77
2023-03-26T21:24:21.670Z,1.17
2023-03-26T21:26:54.745Z,1.10
2023-03-26T21:29:22.512Z,1.13
2023-03-26T21:31:54.172Z,0.70
2023-03-26T21:34:21.832Z,0.73
2023-03-26T21:36:49.624Z,0.97
2023-03-26T21:39:17.090Z,0.50
2023-03-26T21:41:47.687Z,0.70
2023-03-26T21:44:15.060Z,0.90
2023-03-26T21:46:43.554Z,0.77
2023-03-26T21:49:15.419Z,0.60
2023-03-26T21:51:43.337Z,0.97
2023-03-26T21:54:21.882Z,0.80
2023-03-26T21:57:06.861Z,0.70
2023-03-26T21:59:41.941Z,0.47
2023-03-26T22:02:18.808Z,0.40
2023-03-26T22:04:52.177Z,0.40
2023-03-26T22:07:23.206Z,0.33
2023-03-26T22:09:50.858Z,0.30
2023-03-26T22:12:17.744Z,0.40
2023-03-26T22:14:44.693Z,0.40
2023-03-26T22:17:11.582Z,0.40
2023-03-26T22:19:38.473Z,0.50
2023-03-26T22:22:08.004Z,0.57
2023-03-26T22:24:34.874Z,0.50
2023-03-26T22:27:01.793Z,0.67
2023-03-26T22:29:28.714Z,0.57
2023-03-26T22:31:55.582Z,1.53
2023-03-26T22:34:22.457Z,0.50
2023-03-26T22:36:49.329Z,0.40
2023-03-26T22:39:18.834Z,0.90
2023-03-26T22:41:45.699Z,0.90
2023-03-26T22:44:19.758Z,0.73
2023-03-26T22:46:46.981Z,1.20
2023-03-26T22:49:13.891Z,1.50
2023-03-26T22:51:40.756Z,1.60
2023-03-26T22:54:07.633Z,0.90
2023-03-26T22:56:37.235Z,0.83
2023-03-26T22:59:04.310Z,2.20
2023-03-26T23:01:31.267Z,1.93
2023-03-26T23:03:58.165Z,1.33
2023-03-26T23:06:25.154Z,5.10
2023-03-26T23:08:52.039Z,1.33
2023-03-26T23:11:20.625Z,1.90
2023-03-26T23:13:50.497Z,3.10
2023-03-26T23:16:17.699Z,1.37
2023-03-26T23:18:45.175Z,1.10
2023-03-26T23:21:13.975Z,1.27
2023-03-26T23:23:41.090Z,2.00
2023-03-26T23:26:08.387Z,1.87
2023-03-26T23:28:36.029Z,2.30
2023-03-26T23:31:07.630Z,3.77
2023-03-26T23:33:36.257Z,1.80
2023-03-26T23:36:07.239Z,1.77
2023-03-26T23:38:43.408Z,2.50
2023-03-26T23:41:12.018Z,2.13
2023-03-26T23:43:38.897Z,2.07
2023-03-26T23:46:24.944Z,2.20
2023-03-26T23:48:52.683Z,3.77
2023-03-26T23:51:20.919Z,2.27
2023-03-26T23:53:48.455Z,4.47
2023-03-26T23:56:15.435Z,2.87
2023-03-26T23:58:42.434Z,3.00
